Time;durP1;ratioP1;P1;durP2;ratioP2;P2;SDS_P1;SDS_P2;PMS_P1;PMS_P2;Temp;Humidity;BMP_temperature;BMP_pressure;BME280_temperature;BME280_humidity;BME280_pressure;Samples;Min_cycle;Max_cycle;Signal;HPM_P1;HPM_P2
2023/05/21 00:02:35;;;;;;;7.25;4.87;;;;;;;;;;4391062;32;69633;-63
2023/05/21 00:05:22;;;;;;;9.02;5.55;;;;;;;;;;4402194;32;68462;-62
2023/05/21 00:08:09;;;;;;;10.43;5.68;;;;;;;;;;4391521;32;67955;-63
2023/05/21 00:10:56;;;;;;;8.00;5.30;;;;;;;;;;4377645;32;72583;-61
2023/05/21 00:13:42;;;;;;;8.20;5.28;;;;;;;;;;4391003;32;65460;-61
2023/05/21 00:16:30;;;;;;;7.70;5.30;;;;;;;;;;4391151;32;67468;-63
2023/05/21 00:19:16;;;;;;;;;;;;;;;;;;4402082;32;59947;-63
2023/05/21 00:22:03;;;;;;;8.65;5.22;;;;;;;;;;4380578;32;69341;-62
2023/05/21 00:24:50;;;;;;;9.90;5.80;;;;;;;;;;4403685;32;69167;-63
2023/05/21 00:27:36;;;;;;;;;;;;;;;;;;4377968;32;66525;-62
2023/05/21 00:30:22;;;;;;;8.93;5.65;;;;;;;;;;4391275;32;58733;-61
2023/05/21 00:33:12;;;;;;;7.07;5.03;;;;;;;;;;4401610;32;69607;-61
2023/05/21 00:35:59;;;;;;;10.50;5.35;;;;;;;;;;4388338;32;70114;-62
2023/05/21 00:38:46;;;;;;;10.48;5.62;;;;;;;;;;4402005;32;66888;-63
2023/05/21 00:41:34;;;;;;;8.95;5.95;;;;;;;;;;4391006;32;70788;-62
2023/05/21 00:44:21;;;;;;;8.60;5.53;;;;;;;;;;4390508;32;65493;-63
2023/05/21 00:47:07;;;;;;;10.82;4.85;;;;;;;;;;4390823;32;66706;-62
2023/05/21 00:49:55;;;;;;;9.68;5.32;;;;;;;;;;4391279;32;59317;-63
2023/05/21 00:52:42;;;;;;;8.57;5.50;;;;;;;;;;4378049;32;72381;-63
2023/05/21 00:55:29;;;;;;;7.97;5.15;;;;;;;;;;4390559;32;67141;-63
2023/05/21 00:58:19;;;;;;;9.20;5.97;;;;;;;;;;4380405;32;68347;-62
2023/05/21 01:01:12;;;;;;;8.02;5.12;;;;;;;;;;4401629;32;60119;-63
2023/05/21 01:04:01;;;;;;;11.00;5.68;;;;;;;;;;4387921;32;70214;-63
2023/05/21 01:06:47;;;;;;;7.75;5.62;;;;;;;;;;4382680;32;68410;-63
2023/05/21 01:09:34;;;;;;;;;;;;;;;;;;4390894;32;69293;-62
2023/05/21 01:12:21;;;;;;;8.63;5.80;;;;;;;;;;4404221;32;71913;-62
2023/05/21 01:15:09;;;;;;;8.75;4.97;;;;;;;;;;4380070;32;71244;-63
2023/05/21 01:17:56;;;;;;;8.95;4.43;;;;;;;;;;4369542;32;70109;-62
2023/05/21 01:20:47;;;;;;;;;;;;;;;;;;4369601;32;68161;-62
2023/05/21 01:23:33;;;;;;;11.35;4.80;;;;;;;;;;4380125;32;71575;-62
2023/05/21 01:26:20;;;;;;;6.78;4.95;;;;;;;;;;4393214;32;66712;-62
2023/05/21 01:29:11;;;;;;;10.10;4.68;;;;;;;;;;4393147;32;67573;-62
2023/05/21 01:32:10;;;;;;;9.20;4.95;;;;;;;;;;4404286;32;60372;-62
2023/05/21 01:35:09;;;;;;;10.25;5.60;;;;;;;;;;4403724;32;70037;-62
2023/05/21 01:38:02;;;;;;;13.00;5.43;;;;;;;;;;4393003;32;69477;-62
2023/05/21 01:41:02;;;;;;;11.07;5.85;;;;;;;;;;4378983;32;68409;-63
2023/05/21 01:43:50;;;;;;;9.20;5.00;;;;;;;;;;4404470;32;59058;-63
2023/05/21 01:46:37;;;;;;;9.27;5.22;;;;;;;;;;4379325;32;70137;-61
2023/05/21 01:49:24;;;;;;;11.77;6.37;;;;;;;;;;4392800;32;69108;-62
2023/05/21 01:52:11;;;;;;;12.68;6.40;;;;;;;;;;4392681;32;66787;-62
2023/05/21 01:54:59;;;;;;;11.18;6.40;;;;;;;;;;4381854;32;71832;-62
2023/05/21 01:57:46;;;;;;;8.82;5.22;;;;;;;;;;4368927;32;67131;-63
2023/05/21 02:00:33;;;;;;;10.13;5.97;;;;;;;;;;4368881;32;67531;-61
2023/05/21 02:03:21;;;;;;;8.00;5.55;;;;;;;;;;4382486;32;59267;-63
2023/05/21 02:06:08;;;;;;;10.20;5.37;;;;;;;;;;4379084;32;72473;-62
2023/05/21 02:08:55;;;;;;;12.13;5.62;;;;;;;;;;4393430;32;66475;-62
2023/05/21 02:11:42;;;;;;;9.00;5.65;;;;;;;;;;4381963;32;67136;-64
2023/05/21 02:14:29;;;;;;;12.93;5.80;;;;;;;;;;4403450;32;59298;-62
2023/05/21 02:17:16;;;;;;;10.23;6.18;;;;;;;;;;4392578;32;69710;-62
2023/05/21 02:20:10;;;;;;;12.18;6.82;;;;;;;;;;4392494;32;69223;-62
2023/05/21 02:22:56;;;;;;;14.23;7.50;;;;;;;;;;4383978;32;68244;-66
2023/05/21 02:25:43;;;;;;;13.73;7.05;;;;;;;;;;4392426;32;71813;-63
2023/05/21 02:28:31;;;;;;;15.82;7.57;;;;;;;;;;4403332;32;66656;-62
2023/05/21 02:31:17;;;;;;;15.27;7.07;;;;;;;;;;4392349;32;69543;-62
2023/05/21 02:34:06;;;;;;;15.40;7.75;;;;;;;;;;4379355;32;68745;-62
2023/05/21 02:36:53;;;;;;;13.75;8.18;;;;;;;;;;4368279;32;71991;-62
2023/05/21 02:39:40;;;;;;;13.32;7.45;;;;;;;;;;4379432;32;66218;-63
2023/05/21 02:42:27;;;;;;;14.13;7.93;;;;;;;;;;4379034;32;68779;-63
2023/05/21 02:45:13;;;;;;;13.52;7.80;;;;;;;;;;4415286;32;60306;-62
2023/05/21 02:48:00;;;;;;;16.80;8.00;;;;;;;;;;4392287;32;69724;-62
2023/05/21 02:50:49;;;;;;;14.05;7.35;;;;;;;;;;4392478;32;69369;-62
2023/05/21 02:53:36;;;;;;;12.23;6.97;;;;;;;;;;4367725;32;68286;-62
2023/05/21 02:56:24;;;;;;;14.35;7.45;;;;;;;;;;4392035;32;59173;-62
2023/05/21 02:59:11;;;;;;;11.98;7.20;;;;;;;;;;4379299;32;71114;-61
2023/05/21 03:01:58;;;;;;;11.05;6.93;;;;;;;;;;4392358;32;68522;-63
2023/05/21 03:04:45;;;;;;;14.90;7.25;;;;;;;;;;4392621;32;67516;-62
2023/05/21 03:07:32;;;;;;;14.35;7.57;;;;;;;;;;4403049;32;70803;-63
2023/05/21 03:10:18;;;;;;;;;;;;;;;;;;4368672;32;66335;-62
2023/05/21 03:13:05;;;;;;;12.07;6.37;;;;;;;;;;4415726;32;68044;-62
2023/05/21 03:15:55;;;;;;;10.65;5.85;;;;;;;;;;4381439;32;59418;-62
2023/05/21 03:18:42;;;;;;;10.57;5.97;;;;;;;;;;4391730;32;69418;-62
2023/05/21 03:21:30;;;;;;;13.25;6.30;;;;;;;;;;4392258;32;65463;-62
2023/05/21 03:24:17;;;;;;;12.93;6.10;;;;;;;;;;4385836;32;68011;-61
2023/05/21 03:27:05;;;;;;;;;;;;;;;;;;4392068;32;59262;-62
2023/05/21 03:29:54;;;;;;;11.23;5.35;;;;;;;;;;4391898;32;68884;-62
2023/05/21 03:32:43;;;;;;;12.68;6.12;;;;;;;;;;4378182;32;68422;-63
2023/05/21 03:35:30;;;;;;;12.05;6.03;;;;;;;;;;4391604;32;66841;-62
2023/05/21 03:38:17;;;;;;;11.50;5.68;;;;;;;;;;4378007;32;69176;-61
2023/05/21 03:41:05;;;;;;;10.20;5.85;;;;;;;;;;4391544;32;67155;-63
2023/05/21 03:43:52;;;;;;;11.63;5.57;;;;;;;;;;4402038;32;69754;-63
2023/05/21 03:46:39;;;;;;;8.88;5.15;;;;;;;;;;4388704;32;66296;-61
2023/05/21 03:49:26;;;;;;;8.75;4.97;;;;;;;;;;4390087;32;72196;-63
2023/05/21 03:52:14;;;;;;;12.88;5.82;;;;;;;;;;4392165;32;65403;-63
2023/05/21 03:55:00;;;;;;;11.70;6.10;;;;;;;;;;4380519;32;67920;-63
2023/05/21 03:57:47;;;;;;;10.40;5.43;;;;;;;;;;4391346;32;60237;-63
2023/05/21 04:00:36;;;;;;;13.32;5.53;;;;;;;;;;4391141;32;70749;-62
2023/05/21 04:03:23;;;;;;;9.02;5.20;;;;;;;;;;4391337;32;68847;-62
2023/05/21 04:06:09;;;;;;;;;;;;;;;;;;4391262;32;67407;-62
2023/05/21 04:08:57;;;;;;;13.75;5.72;;;;;;;;;;4414290;32;59773;-62
2023/05/21 04:11:44;;;;;;;9.55;4.82;;;;;;;;;;4377396;32;70376;-62
2023/05/21 04:14:32;;;;;;;12.32;5.35;;;;;;;;;;4401453;32;68598;-63
2023/05/21 04:17:19;;;;;;;10.52;5.03;;;;;;;;;;4377385;32;67263;-63
2023/05/21 04:20:07;;;;;;;9.65;5.37;;;;;;;;;;4413549;32;71179;-61
2023/05/21 04:22:53;;;;;;;10.90;5.65;;;;;;;;;;4380354;32;65385;-62
2023/05/21 04:25:41;;;;;;;10.35;5.65;;;;;;;;;;4405319;32;68221;-62
2023/05/21 04:32:38;;;;;;;9.97;5.07;;;;;;;;;;4419149;32;70339;-64
2023/05/21 04:35:34;;;;;;;8.40;5.00;;;;;;;;;;4382277;32;65499;-63
2023/05/21 04:38:20;;;;;;;8.45;5.25;;;;;;;;;;4378127;32;68123;-62
2023/05/21 04:41:09;;;;;;;10.70;4.93;;;;;;;;;;4404188;32;59565;-64
2023/05/21 04:43:57;;;;;;;8.25;4.32;;;;;;;;;;4390291;32;71179;-63
2023/05/21 04:46:45;;;;;;;9.70;4.60;;;;;;;;;;4393381;32;69162;-62
2023/05/21 04:49:33;;;;;;;11.23;5.10;;;;;;;;;;4382511;32;67572;-63
2023/05/21 04:52:20;;;;;;;8.05;4.57;;;;;;;;;;4394510;32;71954;-62
2023/05/21 04:55:07;;;;;;;;;;;;;;;;;;4393722;32;65716;-63
2023/05/21 04:57:54;;;;;;;7.28;3.90;;;;;;;;;;4380212;32;68431;-64
2023/05/21 05:00:41;;;;;;;5.60;3.35;;;;;;;;;;4392857;32;67590;-62
2023/05/21 05:03:28;;;;;;;5.25;3.55;;;;;;;;;;4393031;32;70738;-62
2023/05/21 05:06:16;;;;;;;8.48;3.92;;;;;;;;;;4393301;32;66288;-64
2023/05/21 05:09:03;;;;;;;7.78;3.70;;;;;;;;;;4392976;32;67999;-62
2023/05/21 05:11:50;;;;;;;8.43;3.70;;;;;;;;;;4393363;32;59056;-63
2023/05/21 05:14:37;;;;;;;6.50;3.58;;;;;;;;;;4392678;32;70486;-62
2023/05/21 05:17:24;;;;;;;5.37;2.85;;;;;;;;;;4386176;32;69428;-64
2023/05/21 05:20:11;;;;;;;5.15;2.42;;;;;;;;;;4391975;32;65499;-63
2023/05/21 05:22:58;;;;;;;4.50;2.50;;;;;;;;;;4393056;32;72064;-62
2023/05/21 05:25:45;;;;;;;;;;;;;;;;;;4403799;32;70604;-64
2023/05/21 05:28:31;;;;;;;3.83;2.20;;;;;;;;;;4379227;32;69052;-63
2023/05/21 05:31:18;;;;;;;4.95;2.22;;;;;;;;;;4382556;32;67681;-63
2023/05/21 05:34:05;;;;;;;;;;;;;;;;;;4408004;32;71844;-62
2023/05/21 05:36:51;;;;;;;4.37;2.00;;;;;;;;;;4417443;32;65777;-62
2023/05/21 05:39:38;;;;;;;4.90;1.85;;;;;;;;;;4415629;32;68154;-62
2023/05/21 05:42:25;;;;;;;2.65;1.67;;;;;;;;;;4401155;32;57868;-61
2023/05/21 05:45:12;;;;;;;2.92;1.95;;;;;;;;;;4382663;32;69823;-62
2023/05/21 05:47:59;;;;;;;7.18;2.10;;;;;;;;;;4400715;32;69017;-62
2023/05/21 05:50:46;;;;;;;3.67;1.65;;;;;;;;;;4389359;32;68466;-63
2023/05/21 05:53:34;;;;;;;3.45;1.80;;;;;;;;;;4397253;32;59009;-63
2023/05/21 05:56:20;;;;;;;;;;;;;;;;;;4398265;32;71037;-62
2023/05/21 05:59:07;;;;;;;5.10;2.42;;;;;;;;;;4408934;32;68486;-62
2023/05/21 06:01:54;;;;;;;4.10;2.12;;;;;;;;;;4395464;32;67380;-62
2023/05/21 06:04:41;;;;;;;;;;;;;;;;;;4390517;32;72238;-61
2023/05/21 06:07:28;;;;;;;5.63;2.07;;;;;;;;;;4382381;32;66349;-63
2023/05/21 06:10:14;;;;;;;7.65;2.20;;;;;;;;;;4404043;32;67778;-63
2023/05/21 06:13:01;;;;;;;4.43;2.03;;;;;;;;;;4381565;32;67819;-63
2023/05/21 06:15:47;;;;;;;4.18;2.05;;;;;;;;;;4403000;32;70696;-63
2023/05/21 06:18:34;;;;;;;;;;;;;;;;;;4415419;32;66482;-63
2023/05/21 06:21:21;;;;;;;4.55;1.87;;;;;;;;;;4392707;32;68005;-62
2023/05/21 06:24:07;;;;;;;;;;;;;;;;;;4392843;32;60380;-62
2023/05/21 06:26:54;;;;;;;2.55;1.75;;;;;;;;;;4415316;32;69316;-63
2023/05/21 06:29:42;;;;;;;7.20;2.15;;;;;;;;;;4392274;32;69527;-62
2023/05/21 06:32:28;;;;;;;;;;;;;;;;;;4392860;32;67593;-63
2023/05/21 06:35:15;;;;;;;6.75;2.00;;;;;;;;;;4400644;32;71429;-63
2023/05/21 06:38:02;;;;;;;5.62;1.77;;;;;;;;;;4389410;32;71246;-63
2023/05/21 06:40:49;;;;;;;3.20;1.80;;;;;;;;;;4378671;32;69000;-63
2023/05/21 06:43:37;;;;;;;4.20;1.67;;;;;;;;;;4392649;32;66722;-63
2023/05/21 06:46:26;;;;;;;7.32;1.80;;;;;;;;;;4403150;32;71748;-62
2023/05/21 06:49:13;;;;;;;;;;;;;;;;;;4378544;32;66639;-62
2023/05/21 06:52:00;;;;;;;4.68;1.98;;;;;;;;;;4368125;32;68465;-62
2023/05/21 06:54:47;;;;;;;3.25;1.33;;;;;;;;;;4381790;32;60286;-62
2023/05/21 06:57:34;;;;;;;3.28;1.98;;;;;;;;;;4391856;32;70678;-62
2023/05/21 07:00:21;;;;;;;;;;;;;;;;;;4403158;32;69460;-62
2023/05/21 07:03:07;;;;;;;4.80;1.95;;;;;;;;;;4380510;32;68417;-62
2023/05/21 07:05:56;;;;;;;3.53;1.60;;;;;;;;;;4378561;32;59749;-63
2023/05/21 07:08:42;;;;;;;4.10;1.42;;;;;;;;;;4388470;32;71571;-62
2023/05/21 07:11:29;;;;;;;4.12;1.65;;;;;;;;;;4391655;32;69521;-61
2023/05/21 07:14:16;;;;;;;3.22;2.08;;;;;;;;;;4391746;32;66728;-62
2023/05/21 07:17:03;;;;;;;7.95;1.98;;;;;;;;;;4388445;32;72313;-64
2023/05/21 07:19:50;;;;;;;4.70;2.20;;;;;;;;;;4391841;32;66862;-62
2023/05/21 07:22:38;;;;;;;4.00;2.33;;;;;;;;;;4391601;32;66974;-63
2023/05/21 07:25:25;;;;;;;3.70;1.92;;;;;;;;;;4391733;32;59433;-62
2023/05/21 07:28:12;;;;;;;2.40;1.75;;;;;;;;;;4381533;32;71974;-63
2023/05/21 07:30:59;;;;;;;;;;;;;;;;;;4379126;32;65507;-62
2023/05/21 07:33:46;;;;;;;4.97;2.12;;;;;;;;;;4414072;32;67275;-63
2023/05/21 07:36:33;;;;;;;;;;;;;;;;;;4381314;32;59097;-61
2023/05/21 07:39:20;;;;;;;3.60;1.95;;;;;;;;;;4402205;32;70402;-62
2023/05/21 07:42:07;;;;;;;4.22;2.00;;;;;;;;;;4402002;32;69270;-61
2023/05/21 07:44:54;;;;;;;5.97;2.25;;;;;;;;;;4404844;32;66959;-63
2023/05/21 07:47:43;;;;;;;7.55;1.98;;;;;;;;;;4403812;32;71580;-62
2023/05/21 07:50:30;;;;;;;5.50;2.10;;;;;;;;;;4391507;32;65402;-63
2023/05/21 07:53:17;;;;;;;4.10;1.70;;;;;;;;;;4391568;32;68365;-62
2023/05/21 07:56:04;;;;;;;4.65;2.12;;;;;;;;;;4377917;32;67270;-62
2023/05/21 07:58:52;;;;;;;2.80;1.75;;;;;;;;;;4377513;32;72442;-62
2023/05/21 08:01:39;;;;;;;2.85;1.58;;;;;;;;;;4391342;32;66403;-62
2023/05/21 08:04:26;;;;;;;5.15;1.90;;;;;;;;;;4391355;32;67662;-62
2023/05/21 08:07:15;;;;;;;7.35;2.25;;;;;;;;;;4380719;32;59164;-62
2023/05/21 08:10:03;;;;;;;2.42;1.00;;;;;;;;;;4380665;32;69706;-64
2023/05/21 08:12:50;;;;;;;5.32;2.00;;;;;;;;;;4391958;32;68950;-62
2023/05/21 08:15:38;;;;;;;2.78;1.60;;;;;;;;;;4414080;32;67517;-62
2023/05/21 08:18:24;;;;;;;2.87;1.73;;;;;;;;;;4380724;32;59549;-63
2023/05/21 08:21:11;;;;;;;3.75;2.00;;;;;;;;;;4401615;32;69458;-62
2023/05/21 08:23:59;;;;;;;6.45;1.92;;;;;;;;;;4401558;32;69156;-63
2023/05/21 08:26:48;;;;;;;2.90;1.87;;;;;;;;;;4381193;32;66989;-62
2023/05/21 08:29:34;;;;;;;9.65;2.22;;;;;;;;;;4378231;32;72101;-61
2023/05/21 08:32:22;;;;;;;4.93;2.53;;;;;;;;;;4391200;32;65676;-62
2023/05/21 08:35:08;;;;;;;;;;;;;;;;;;4378042;32;68323;-61
2023/05/21 08:37:56;;;;;;;;;;;;;;;;;;4379317;32;60022;-61
2023/05/21 08:40:44;;;;;;;3.65;1.65;;;;;;;;;;4388205;32;72939;-62
2023/05/21 08:43:32;;;;;;;7.25;2.15;;;;;;;;;;4390904;32;66523;-62
2023/05/21 08:46:22;;;;;;;3.33;1.98;;;;;;;;;;4380306;32;68133;-62
2023/05/21 08:49:12;;;;;;;4.25;2.03;;;;;;;;;;4402034;32;60150;-62
2023/05/21 08:51:59;;;;;;;5.55;2.08;;;;;;;;;;4391255;32;70463;-62
2023/05/21 08:54:49;;;;;;;3.45;1.95;;;;;;;;;;4390825;32;69595;-62
2023/05/21 08:57:36;;;;;;;5.20;2.47;;;;;;;;;;4401350;32;67680;-61
2023/05/21 09:00:23;;;;;;;4.93;2.12;;;;;;;;;;4390401;32;70742;-62
2023/05/21 09:03:12;;;;;;;4.30;1.80;;;;;;;;;;4390664;32;66496;-62
2023/05/21 09:06:00;;;;;;;3.60;2.42;;;;;;;;;;4377352;32;68754;-62
2023/05/21 09:08:53;;;;;;;3.28;1.92;;;;;;;;;;4381631;32;66736;-61
2023/05/21 09:11:41;;;;;;;3.60;1.98;;;;;;;;;;4390133;32;70763;-63
2023/05/21 09:14:28;;;;;;;2.45;1.90;;;;;;;;;;4390079;32;66507;-62
2023/05/21 09:17:16;;;;;;;10.40;3.50;;;;;;;;;;4401015;32;66937;-62
2023/05/21 09:20:14;;;;;;;4.35;1.90;;;;;;;;;;4390348;32;60602;-62
2023/05/21 09:23:05;;;;;;;4.10;2.53;;;;;;;;;;4390673;32;70359;-62
2023/05/21 09:25:52;;;;;;;2.92;2.00;;;;;;;;;;4377364;32;69258;-62
2023/05/21 09:28:40;;;;;;;6.68;2.12;;;;;;;;;;4379250;32;68758;-62
2023/05/21 09:31:27;;;;;;;7.47;2.37;;;;;;;;;;4382388;32;60324;-62
2023/05/21 09:34:14;;;;;;;4.07;2.30;;;;;;;;;;4368728;32;71307;-62
2023/05/21 09:37:01;;;;;;;4.75;2.35;;;;;;;;;;4403320;32;69392;-62
2023/05/21 09:39:48;;;;;;;4.40;2.10;;;;;;;;;;4390044;32;67938;-63
2023/05/21 09:42:34;;;;;;;;;;;;;;;;;;4379665;32;72361;-62
2023/05/21 09:45:25;;;;;;;9.10;2.40;;;;;;;;;;4402700;32;67249;-62
2023/05/21 09:48:12;;;;;;;6.05;2.12;;;;;;;;;;4400018;32;67552;-64
2023/05/21 09:51:09;;;;;;;;;;;;;;;;;;4416088;32;59270;-61
2023/05/21 09:53:57;;;;;;;5.28;2.22;;;;;;;;;;4390599;32;69494;-62
2023/05/21 09:56:44;;;;;;;4.40;1.87;;;;;;;;;;4397010;32;65623;-63
2023/05/21 09:59:38;;;;;;;7.65;1.92;;;;;;;;;;4389564;32;67972;-62
2023/05/21 10:02:25;;;;;;;10.00;2.53;;;;;;;;;;4393212;32;60014;-62
2023/05/21 10:05:13;;;;;;;9.32;2.30;;;;;;;;;;4392218;32;70856;-62
2023/05/21 10:08:02;;;;;;;7.87;2.67;;;;;;;;;;4379069;32;68909;-62
2023/05/21 10:10:49;;;;;;;4.53;2.37;;;;;;;;;;4378770;32;68420;-62
2023/05/21 10:13:40;;;;;;;5.57;2.30;;;;;;;;;;4391991;32;70685;-62
2023/05/21 10:16:28;;;;;;;5.47;2.55;;;;;;;;;;4403028;32;66336;-62
2023/05/21 10:19:15;;;;;;;7.43;2.05;;;;;;;;;;4381200;32;68123;-62
2023/05/21 10:22:03;;;;;;;5.68;2.15;;;;;;;;;;4378298;32;68769;-62
2023/05/21 10:24:53;;;;;;;6.32;2.22;;;;;;;;;;4378611;32;72274;-63
2023/05/21 10:27:41;;;;;;;4.25;2.12;;;;;;;;;;4402499;32;66419;-62
2023/05/21 10:30:28;;;;;;;3.37;1.85;;;;;;;;;;4378852;32;68362;-63
2023/05/21 10:33:16;;;;;;;4.82;2.17;;;;;;;;;;4381636;32;60296;-63
2023/05/21 10:36:02;;;;;;;6.30;2.08;;;;;;;;;;4380963;32;71383;-62
2023/05/21 10:38:50;;;;;;;6.82;2.15;;;;;;;;;;4378455;32;67984;-62
2023/05/21 10:42:08;;;;;;;6.12;2.55;;;;;;;;;;4378821;32;67099;-63
2023/05/21 10:45:31;;;;;;;10.48;2.60;;;;;;;;;;4402897;32;59997;-62
2023/05/21 10:48:26;;;;;;;5.22;2.33;;;;;;;;;;4414906;32;70763;-63
2023/05/21 10:51:35;;;;;;;5.35;2.05;;;;;;;;;;4402858;32;68220;-63
2023/05/21 10:54:48;;;;;;;3.20;2.10;;;;;;;;;;4378450;32;68275;-63
2023/05/21 10:57:46;;;;;;;5.57;2.28;;;;;;;;;;4389225;32;72819;-63
2023/05/21 11:00:33;;;;;;;4.93;2.00;;;;;;;;;;4400930;32;66360;-62
2023/05/21 11:03:20;;;;;;;7.18;2.35;;;;;;;;;;4389429;32;68351;-62
2023/05/21 11:06:07;;;;;;;7.00;2.20;;;;;;;;;;4392601;32;59152;-62
2023/05/21 11:08:54;;;;;;;3.78;2.20;;;;;;;;;;4392134;32;69751;-63
2023/05/21 11:11:52;;;;;;;3.47;2.10;;;;;;;;;;4397958;32;66587;-61
2023/05/21 11:14:55;;;;;;;9.07;2.05;;;;;;;;;;4402148;32;68040;-61
2023/05/21 11:17:43;;;;;;;6.20;2.50;;;;;;;;;;4402204;32;59964;-62
2023/05/21 11:20:34;;;;;;;6.40;2.05;;;;;;;;;;4391548;32;70625;-62
2023/05/21 11:23:21;;;;;;;8.20;2.37;;;;;;;;;;4391507;32;69456;-63
2023/05/21 11:26:07;;;;;;;;;;;;;;;;;;4390504;32;67369;-62
2023/05/21 11:29:03;;;;;;;6.30;2.15;;;;;;;;;;4402057;32;71865;-62
2023/05/21 11:32:04;;;;;;;5.18;1.92;;;;;;;;;;4390546;32;66320;-62
2023/05/21 11:34:51;;;;;;;6.20;2.00;;;;;;;;;;4396580;32;66962;-62
2023/05/21 11:37:40;;;;;;;5.12;2.12;;;;;;;;;;4372790;32;66706;-62
2023/05/21 11:40:29;;;;;;;5.87;2.42;;;;;;;;;;4377915;32;72598;-64
2023/05/21 11:43:15;;;;;;;5.43;2.10;;;;;;;;;;4391419;32;66783;-62
2023/05/21 11:46:03;;;;;;;4.40;1.85;;;;;;;;;;4380488;32;67656;-63
2023/05/21 11:48:50;;;;;;;5.45;2.37;;;;;;;;;;4380272;32;60013;-62
2023/05/21 11:51:38;;;;;;;4.03;1.48;;;;;;;;;;4380496;32;69635;-63
2023/05/21 11:54:25;;;;;;;4.30;2.03;;;;;;;;;;4392126;32;68591;-63
2023/05/21 11:57:14;;;;;;;;;;;;;;;;;;4391191;32;67769;-64
2023/05/21 12:00:07;;;;;;;6.53;1.87;;;;;;;;;;4391243;32;71090;-62
2023/05/21 12:02:59;;;;;;;4.35;1.73;;;;;;;;;;4378607;32;71163;-62
2023/05/21 12:05:46;;;;;;;5.87;2.12;;;;;;;;;;4366843;32;69377;-63
2023/05/21 12:08:33;;;;;;;3.97;1.90;;;;;;;;;;4392721;32;67557;-63
2023/05/21 12:11:20;;;;;;;5.45;2.05;;;;;;;;;;4404077;32;70668;-63
2023/05/21 12:14:11;;;;;;;6.10;2.42;;;;;;;;;;4390802;32;65280;-62
2023/05/21 12:16:58;;;;;;;4.40;1.92;;;;;;;;;;4366822;32;67398;-64
2023/05/21 12:19:45;;;;;;;3.72;2.00;;;;;;;;;;4366956;32;56909;-63
2023/05/21 12:22:32;;;;;;;4.90;1.95;;;;;;;;;;4390713;32;70512;-63
2023/05/21 12:25:19;;;;;;;;;;;;;;;;;;4380274;32;68473;-61
2023/05/21 12:28:06;;;;;;;2.65;1.65;;;;;;;;;;4401773;32;67785;-63
2023/05/21 12:30:52;;;;;;;;;;;;;;;;;;4380688;32;59021;-63
2023/05/21 12:33:39;;;;;;;3.77;2.33;;;;;;;;;;4413519;32;69198;-63
2023/05/21 12:36:26;;;;;;;5.28;1.92;;;;;;;;;;4390595;32;69327;-63
2023/05/21 12:39:14;;;;;;;4.40;2.00;;;;;;;;;;4390771;32;67730;-63
2023/05/21 12:42:02;;;;;;;4.95;1.83;;;;;;;;;;4390358;32;71873;-63
2023/05/21 12:44:49;;;;;;;4.45;2.08;;;;;;;;;;4401145;32;66577;-62
2023/05/21 12:47:35;;;;;;;3.25;2.15;;;;;;;;;;4390413;32;67163;-62
2023/05/21 12:50:22;;;;;;;4.97;1.95;;;;;;;;;;4401472;32;59243;-62
2023/05/21 12:53:10;;;;;;;;;;;;;;;;;;4390855;32;71079;-63
2023/05/21 12:56:10;;;;;;;6.80;2.10;;;;;;;;;;4391053;32;66548;-62
2023/05/21 12:58:57;;;;;;;6.60;2.03;;;;;;;;;;4401173;32;66860;-63
2023/05/21 13:01:47;;;;;;;4.18;2.03;;;;;;;;;;4379357;32;60741;-64
2023/05/21 13:04:36;;;;;;;6.28;2.40;;;;;;;;;;4393165;32;70435;-62
2023/05/21 13:07:23;;;;;;;5.72;2.50;;;;;;;;;;4382256;32;69571;-63
2023/05/21 13:10:11;;;;;;;5.82;2.03;;;;;;;;;;4379418;32;68500;-62
2023/05/21 13:12:58;;;;;;;5.78;2.25;;;;;;;;;;4393430;32;71278;-62
2023/05/21 13:15:44;;;;;;;4.32;1.92;;;;;;;;;;4379203;32;71494;-62
2023/05/21 13:18:31;;;;;;;;;;;;;;;;;;4389968;32;68870;-62
2023/05/21 13:21:17;;;;;;;4.50;2.00;;;;;;;;;;4403653;32;67040;-62
2023/05/21 13:24:04;;;;;;;;;;;;;;;;;;4405662;32;71770;-62
2023/05/21 13:26:50;;;;;;;5.40;2.15;;;;;;;;;;4382329;32;66651;-64
2023/05/21 13:29:37;;;;;;;8.23;1.92;;;;;;;;;;4382317;32;67879;-62
2023/05/21 13:32:23;;;;;;;;;;;;;;;;;;4379700;32;59758;-62
2023/05/21 13:35:10;;;;;;;3.40;1.80;;;;;;;;;;4403402;32;69438;-61
2023/05/21 13:37:57;;;;;;;4.90;2.05;;;;;;;;;;4392921;32;69560;-62
2023/05/21 13:40:44;;;;;;;3.12;1.95;;;;;;;;;;4403654;32;68110;-62
2023/05/21 13:43:31;;;;;;;4.32;1.65;;;;;;;;;;4381924;32;59049;-63
2023/05/21 13:46:18;;;;;;;4.78;2.25;;;;;;;;;;4392428;32;70562;-63
2023/05/21 13:49:05;;;;;;;5.15;2.05;;;;;;;;;;4392522;32;69613;-62
2023/05/21 13:51:52;;;;;;;4.95;1.92;;;;;;;;;;4403187;32;68210;-62
2023/05/21 13:54:38;;;;;;;;;;;;;;;;;;4392670;32;71674;-63
2023/05/21 13:57:25;;;;;;;9.80;4.72;;;;;;;;;;4394052;32;66518;-63
2023/05/21 14:00:14;;;;;;;5.35;2.28;;;;;;;;;;4403606;32;67454;-62
2023/05/21 14:03:01;;;;;;;6.47;2.60;;;;;;;;;;4403296;32;60057;-62
2023/05/21 14:05:52;;;;;;;3.08;1.90;;;;;;;;;;4415082;32;71977;-62
2023/05/21 14:08:40;;;;;;;3.47;2.12;;;;;;;;;;4403866;32;66549;-63
2023/05/21 14:11:27;;;;;;;3.45;1.80;;;;;;;;;;4392500;32;67274;-62
2023/05/21 14:14:17;;;;;;;4.95;1.90;;;;;;;;;;4381689;32;60168;-63
2023/05/21 14:17:06;;;;;;;6.65;2.10;;;;;;;;;;4392453;32;70790;-62
2023/05/21 14:19:53;;;;;;;4.90;1.77;;;;;;;;;;4394910;32;69222;-64
2023/05/21 14:22:40;;;;;;;6.05;2.10;;;;;;;;;;4405612;32;67985;-63
2023/05/21 14:25:27;;;;;;;5.35;1.90;;;;;;;;;;4391872;32;71711;-62
2023/05/21 14:28:13;;;;;;;;;;;;;;;;;;4394158;32;66742;-62
2023/05/21 14:31:00;;;;;;;3.30;2.20;;;;;;;;;;4414845;32;68484;-62
2023/05/21 14:33:46;;;;;;;3.85;2.12;;;;;;;;;;4402605;32;66874;-62
2023/05/21 14:36:34;;;;;;;4.03;1.98;;;;;;;;;;4378285;32;72482;-62
2023/05/21 14:39:20;;;;;;;6.70;1.83;;;;;;;;;;4391692;32;67008;-62
2023/05/21 14:42:06;;;;;;;3.00;2.10;;;;;;;;;;4402495;32;67984;-63
2023/05/21 14:44:53;;;;;;;5.47;2.20;;;;;;;;;;4402689;32;60224;-63
2023/05/21 14:47:40;;;;;;;7.15;2.20;;;;;;;;;;4402764;32;70724;-62
2023/05/21 14:50:26;;;;;;;;;;;;;;;;;;4392112;32;69337;-62
2023/05/21 14:53:13;;;;;;;3.75;2.40;;;;;;;;;;4389378;32;67364;-63
2023/05/21 14:56:00;;;;;;;4.45;2.78;;;;;;;;;;4378704;32;58545;-61
2023/05/21 14:58:47;;;;;;;5.35;2.20;;;;;;;;;;4381496;32;69527;-62
2023/05/21 15:01:33;;;;;;;4.47;2.22;;;;;;;;;;4402399;32;68517;-63
2023/05/21 15:04:20;;;;;;;5.40;2.00;;;;;;;;;;4377838;32;68220;-62
2023/05/21 15:07:06;;;;;;;6.40;2.08;;;;;;;;;;4391720;32;71064;-62
2023/05/21 15:09:53;;;;;;;;;;;;;;;;;;4390128;32;66506;-62
2023/05/21 15:12:40;;;;;;;5.55;1.90;;;;;;;;;;4420437;32;67220;-63
2023/05/21 15:15:27;;;;;;;7.57;2.50;;;;;;;;;;4401369;32;59230;-61
2023/05/21 15:18:13;;;;;;;;;;;;;;;;;;4402825;32;70194;-63
2023/05/21 15:21:00;;;;;;;6.45;2.20;;;;;;;;;;4414495;32;66748;-62
2023/05/21 15:23:46;;;;;;;6.28;2.12;;;;;;;;;;4390647;32;67033;-63
2023/05/21 15:26:33;;;;;;;5.80;2.17;;;;;;;;;;4402360;32;59610;-63
2023/05/21 15:29:20;;;;;;;5.20;2.53;;;;;;;;;;4380621;32;70370;-63
2023/05/21 15:32:07;;;;;;;6.57;2.33;;;;;;;;;;4402419;32;68312;-63
2023/05/21 15:34:53;;;;;;;;;;;;;;;;;;4381049;32;67692;-62
2023/05/21 15:37:42;;;;;;;4.32;2.22;;;;;;;;;;4402690;32;71678;-61
2023/05/21 15:40:28;;;;;;;4.25;1.98;;;;;;;;;;4402322;32;66516;-62
2023/05/21 15:43:16;;;;;;;5.05;2.40;;;;;;;;;;4377332;32;69567;-63
2023/05/21 15:46:02;;;;;;;;;;;;;;;;;;4377793;32;68716;-62
2023/05/21 15:48:49;;;;;;;7.60;2.37;;;;;;;;;;4391219;32;71897;-61
2023/05/21 15:51:35;;;;;;;;;;;;;;;;;;4391292;32;66788;-62
2023/05/21 15:54:31;;;;;;;7.45;2.33;;;;;;;;;;4391297;32;67854;-62
2023/05/21 15:57:17;;;;;;;7.07;2.53;;;;;;;;;;4391477;32;59095;-62
2023/05/21 16:00:05;;;;;;;7.65;2.65;;;;;;;;;;4392459;32;70303;-62
2023/05/21 16:02:54;;;;;;;6.57;2.40;;;;;;;;;;4367251;32;68950;-62
2023/05/21 16:05:41;;;;;;;7.35;2.97;;;;;;;;;;4380726;32;67513;-62
2023/05/21 16:08:27;;;;;;;;;;;;;;;;;;4391555;32;59044;-61
2023/05/21 16:11:15;;;;;;;7.00;3.03;;;;;;;;;;4388221;32;70672;-63
2023/05/21 16:14:01;;;;;;;4.40;2.80;;;;;;;;;;4401179;32;69196;-62
2023/05/21 16:16:48;;;;;;;5.53;2.72;;;;;;;;;;4401615;32;67572;-62
2023/05/21 16:19:35;;;;;;;8.13;3.05;;;;;;;;;;4401200;32;71838;-63
2023/05/21 16:22:23;;;;;;;6.90;2.80;;;;;;;;;;4391065;32;65352;-63
2023/05/21 16:25:10;;;;;;;7.22;3.20;;;;;;;;;;4391130;32;67968;-62
2023/05/21 16:27:56;;;;;;;;;;;;;;;;;;4405083;32;60211;-62
2023/05/21 16:30:42;;;;;;;11.20;2.92;;;;;;;;;;4383137;32;69765;-63
2023/05/21 16:33:29;;;;;;;;;;;;;;;;;;4416997;32;67005;-62
2023/05/21 16:36:16;;;;;;;6.30;2.75;;;;;;;;;;4390604;32;68427;-62
2023/05/21 16:39:03;;;;;;;9.75;3.83;;;;;;;;;;4393945;32;59992;-62
2023/05/21 16:41:49;;;;;;;;;;;;;;;;;;4380459;32;69890;-62
2023/05/21 16:44:36;;;;;;;9.60;3.72;;;;;;;;;;4393298;32;68674;-62
2023/05/21 16:47:22;;;;;;;10.27;3.62;;;;;;;;;;4379933;32;68436;-62
2023/05/21 16:50:09;;;;;;;8.85;3.83;;;;;;;;;;4403921;32;71776;-61
2023/05/21 16:52:58;;;;;;;11.15;3.92;;;;;;;;;;4382589;32;66720;-62
2023/05/21 16:55:44;;;;;;;7.35;3.97;;;;;;;;;;4404189;32;68002;-61
2023/05/21 16:58:32;;;;;;;;;;;;;;;;;;4393434;32;66621;-62
2023/05/21 17:01:18;;;;;;;10.13;4.25;;;;;;;;;;4393656;32;71700;-62
2023/05/21 17:04:05;;;;;;;10.85;4.97;;;;;;;;;;4393500;32;66420;-61